createdAt,value
2022-12-01T00:01:28.259Z,4.00
2022-12-01T00:03:57.770Z,4.00
2022-12-01T00:06:25.635Z,4.00
2022-12-01T00:09:16.480Z,4.00
2022-12-01T00:11:48.596Z,4.00
2022-12-01T00:14:16.754Z,4.00
2022-12-01T00:16:45.075Z,3.90
2022-12-01T00:19:13.290Z,4.00
2022-12-01T00:21:41.427Z,4.00
2022-12-01T00:24:10.463Z,4.00
2022-12-01T00:26:41.139Z,4.00
2022-12-01T00:29:09.322Z,3.90
2022-12-01T00:31:37.606Z,4.00
2022-12-01T00:34:09.624Z,4.00
2022-12-01T00:36:42.241Z,4.00
2022-12-01T00:39:10.238Z,4.00
2022-12-01T00:41:38.086Z,4.00
2022-12-01T00:44:05.981Z,3.90
2022-12-01T00:46:33.908Z,3.90
2022-12-01T00:49:01.742Z,3.90
2022-12-01T00:51:29.728Z,3.90
2022-12-01T00:53:57.710Z,3.90
2022-12-01T00:56:25.751Z,3.90
2022-12-01T00:58:53.719Z,3.90
2022-12-01T01:01:21.922Z,3.90
2022-12-01T01:03:49.929Z,3.90
2022-12-01T01:06:17.880Z,3.90
2022-12-01T01:08:46.509Z,3.90
2022-12-01T01:11:14.477Z,3.80
2022-12-01T01:13:42.393Z,3.80
2022-12-01T01:16:20.970Z,3.80
2022-12-01T01:18:49.352Z,3.80
2022-12-01T01:21:18.919Z,3.80
2022-12-01T01:23:47.298Z,3.80
2022-12-01T01:26:17.446Z,3.80
2022-12-01T01:28:45.742Z,3.80
2022-12-01T01:31:14.869Z,3.80
2022-12-01T01:33:43.243Z,3.80
2022-12-01T01:36:11.370Z,3.80
2022-12-01T01:38:39.363Z,3.80
2022-12-01T01:41:07.848Z,3.80
2022-12-01T01:43:46.503Z,3.80
2022-12-01T01:46:33.807Z,3.80
2022-12-01T01:49:02.610Z,3.80
2022-12-01T01:51:50.706Z,3.80
2022-12-01T01:54:22.382Z,3.80
2022-12-01T01:56:51.576Z,3.80
2022-12-01T01:59:24.625Z,3.80
2022-12-01T02:01:57.451Z,3.80
2022-12-01T02:04:25.689Z,3.80
2022-12-01T02:06:53.759Z,3.80
2022-12-01T02:09:21.638Z,3.80
2022-12-01T02:11:58.989Z,3.80
2022-12-01T02:14:45.935Z,3.80
2022-12-01T02:17:21.434Z,3.70
2022-12-01T02:19:49.687Z,3.70
2022-12-01T02:22:17.759Z,3.70
2022-12-01T02:24:48.690Z,3.70
2022-12-01T02:27:28.978Z,3.70
2022-12-01T02:30:02.958Z,3.70
2022-12-01T02:32:34.133Z,3.70
2022-12-01T02:35:06.049Z,3.70
2022-12-01T02:37:44.057Z,3.70
2022-12-01T02:40:25.515Z,3.60
2022-12-01T02:43:13.696Z,3.60
2022-12-01T02:45:45.580Z,3.60
2022-12-01T02:48:41.325Z,3.60
2022-12-01T02:51:12.419Z,3.60
2022-12-01T02:53:43.600Z,3.60
2022-12-01T02:56:12.462Z,3.60
2022-12-01T02:58:40.488Z,3.60
2022-12-01T03:01:08.594Z,3.60
2022-12-01T03:04:12.252Z,3.60
2022-12-01T03:06:54.895Z,3.60
2022-12-01T03:09:35.171Z,3.60
2022-12-01T03:12:06.946Z,3.60
2022-12-01T03:14:49.825Z,3.60
2022-12-01T03:17:21.074Z,3.60
2022-12-01T03:19:50.970Z,3.60
2022-12-01T03:22:18.908Z,3.60
2022-12-01T03:24:48.650Z,3.60
2022-12-01T03:27:19.073Z,3.60
2022-12-01T03:29:48.987Z,3.60
2022-12-01T03:32:31.746Z,3.60
2022-12-01T03:35:11.876Z,3.60
2022-12-01T03:37:45.373Z,3.60
2022-12-01T03:40:18.183Z,3.60
2022-12-01T03:42:58.249Z,3.60
2022-12-01T03:45:41.337Z,3.60
2022-12-01T03:48:09.332Z,3.60
2022-12-01T03:50:45.783Z,3.60
2022-12-01T03:53:19.686Z,3.50
2022-12-01T03:55:52.115Z,3.50
2022-12-01T03:58:26.380Z,3.60
2022-12-01T04:00:57.799Z,3.50
2022-12-01T04:03:26.589Z,3.50
2022-12-01T04:05:54.647Z,3.60
2022-12-01T04:08:22.858Z,3.50
2022-12-01T04:10:50.729Z,3.60
2022-12-01T04:13:24.561Z,3.60
2022-12-01T04:15:55.148Z,3.50
2022-12-01T04:18:23.137Z,3.50
2022-12-01T04:20:51.181Z,3.50
2022-12-01T04:23:37.784Z,3.50
2022-12-01T04:26:06.232Z,3.50
2022-12-01T04:28:35.983Z,3.50
2022-12-01T04:31:04.036Z,3.60
2022-12-01T04:33:31.909Z,3.50
2022-12-01T04:36:00.303Z,3.50
2022-12-01T04:38:30.735Z,3.50
2022-12-01T04:40:59.147Z,3.50
2022-12-01T04:43:29.788Z,3.50
2022-12-01T04:45:57.661Z,3.50
2022-12-01T04:48:28.678Z,3.50
2022-12-01T04:50:56.808Z,3.50
2022-12-01T04:53:24.750Z,3.50
2022-12-01T04:55:52.869Z,3.50
2022-12-01T04:58:20.708Z,3.50
2022-12-01T05:00:48.935Z,3.50
2022-12-01T05:03:16.909Z,3.50
2022-12-01T05:05:44.847Z,3.50
2022-12-01T05:08:12.836Z,3.50
2022-12-01T05:10:40.734Z,3.50
2022-12-01T05:13:09.434Z,3.50
2022-12-01T05:15:37.352Z,3.50
2022-12-01T05:18:06.320Z,3.50
2022-12-01T05:20:52.781Z,3.50
2022-12-01T05:23:20.859Z,3.50
2022-12-01T05:25:48.914Z,3.50
2022-12-01T05:28:16.829Z,3.50
2022-12-01T05:30:45.074Z,3.50
2022-12-01T05:33:12.882Z,3.50
2022-12-01T05:35:40.879Z,3.50
2022-12-01T05:38:08.829Z,3.50
2022-12-01T05:40:37.167Z,3.50
2022-12-01T05:43:05.206Z,3.50
2022-12-01T05:45:33.833Z,3.50
2022-12-01T05:48:02.359Z,3.50
2022-12-01T05:50:30.730Z,3.50
2022-12-01T05:52:58.649Z,3.50
2022-12-01T05:55:26.541Z,3.50
2022-12-01T05:57:54.584Z,3.50
2022-12-01T06:00:22.527Z,3.50
2022-12-01T06:02:50.502Z,3.50
2022-12-01T06:05:18.417Z,3.50
2022-12-01T06:07:46.582Z,3.50
2022-12-01T06:10:14.590Z,3.50
2022-12-01T06:12:42.549Z,3.60
2022-12-01T06:15:11.536Z,3.60
2022-12-01T06:17:40.566Z,3.50
2022-12-01T06:20:09.750Z,3.60
2022-12-01T06:22:37.629Z,3.60
2022-12-01T06:25:05.839Z,3.60
2022-12-01T06:27:33.828Z,3.60
2022-12-01T06:30:01.725Z,3.60
2022-12-01T06:32:29.947Z,3.60
2022-12-01T06:34:57.831Z,3.60
2022-12-01T06:37:26.940Z,3.70
2022-12-01T06:39:55.177Z,3.60
2022-12-01T06:42:23.159Z,3.60
2022-12-01T06:44:51.101Z,3.60
2022-12-01T06:47:19.168Z,3.60
2022-12-01T06:49:47.713Z,3.70
2022-12-01T06:52:15.860Z,3.70
2022-12-01T06:54:43.931Z,3.70
2022-12-01T06:57:12.000Z,3.70
2022-12-01T06:59:40.128Z,3.70
2022-12-01T07:02:10.769Z,3.70
2022-12-01T07:04:38.877Z,3.70
2022-12-01T07:07:07.310Z,3.70
2022-12-01T07:09:35.540Z,3.70
2022-12-01T07:12:03.590Z,3.70
2022-12-01T07:14:32.146Z,3.70
2022-12-01T07:17:00.101Z,3.70
2022-12-01T07:19:28.019Z,3.70
2022-12-01T07:21:56.042Z,3.80
2022-12-01T07:24:23.919Z,3.80
2022-12-01T07:26:51.812Z,3.80
2022-12-01T07:29:19.972Z,3.80
2022-12-01T07:31:47.808Z,3.90
2022-12-01T07:34:15.736Z,3.80
2022-12-01T07:36:43.737Z,3.90
2022-12-01T07:39:11.742Z,3.90
2022-12-01T07:41:39.578Z,3.90
2022-12-01T07:44:07.629Z,3.80
2022-12-01T07:46:35.549Z,3.90
2022-12-01T07:49:06.558Z,3.90
2022-12-01T07:51:35.380Z,3.90
2022-12-01T07:54:04.588Z,3.90
2022-12-01T07:56:32.931Z,3.90
2022-12-01T07:59:01.178Z,4.00
2022-12-01T08:01:29.146Z,4.00
2022-12-01T08:03:58.309Z,4.00
2022-12-01T08:06:26.727Z,4.00
2022-12-01T08:08:55.247Z,4.10
2022-12-01T08:11:24.369Z,4.10
2022-12-01T08:13:53.355Z,4.10
2022-12-01T08:16:22.747Z,4.20
2022-12-01T08:18:51.103Z,4.30
2022-12-01T08:21:20.295Z,4.40
2022-12-01T08:23:48.450Z,4.40
2022-12-01T08:26:17.524Z,4.60
2022-12-01T08:28:45.760Z,4.60
2022-12-01T08:31:21.289Z,4.70
2022-12-01T08:33:49.945Z,4.80
2022-12-01T08:36:18.133Z,4.90
2022-12-01T08:38:46.792Z,4.90
2022-12-01T08:41:15.482Z,4.90
2022-12-01T08:44:01.326Z,4.90
2022-12-01T08:46:32.864Z,4.80
2022-12-01T08:49:01.368Z,4.80
2022-12-01T08:51:29.524Z,4.80
2022-12-01T08:53:58.022Z,4.90
2022-12-01T08:56:30.998Z,4.90
2022-12-01T08:58:59.310Z,4.90
2022-12-01T09:01:27.874Z,4.90
2022-12-01T09:04:09.127Z,4.90
2022-12-01T09:06:44.716Z,4.90
2022-12-01T09:09:14.196Z,4.80
2022-12-01T09:11:44.013Z,4.80
2022-12-01T09:14:12.534Z,4.80
2022-12-01T09:16:41.450Z,4.90
2022-12-01T09:19:09.577Z,4.90
2022-12-01T09:21:37.959Z,4.90
2022-12-01T09:24:08.577Z,4.90
2022-12-01T09:26:36.614Z,5.00
2022-12-01T09:29:06.644Z,5.00
2022-12-01T09:31:35.866Z,5.10
2022-12-01T09:34:05.284Z,5.10
2022-12-01T09:36:34.071Z,5.10
2022-12-01T09:39:02.764Z,5.20
2022-12-01T09:41:33.367Z,5.20
2022-12-01T09:44:14.415Z,5.20
2022-12-01T09:46:48.709Z,5.30
2022-12-01T09:49:23.250Z,5.30
2022-12-01T09:51:54.741Z,5.40
2022-12-01T09:54:22.648Z,5.40
2022-12-01T09:56:53.641Z,5.40
2022-12-01T09:59:24.004Z,5.50
2022-12-01T10:01:55.349Z,5.50
2022-12-01T10:04:27.154Z,5.60
2022-12-01T10:07:05.052Z,5.70
2022-12-01T10:09:36.063Z,5.80
2022-12-01T10:12:28.174Z,5.80
2022-12-01T10:15:09.659Z,5.90
2022-12-01T10:17:43.987Z,5.90
2022-12-01T10:20:23.487Z,5.90
2022-12-01T10:23:10.151Z,5.80
2022-12-01T10:25:58.801Z,5.70
2022-12-01T10:28:38.315Z,5.70
2022-12-01T10:31:25.610Z,5.60
2022-12-01T10:33:59.738Z,5.50
2022-12-01T10:36:28.796Z,5.40
2022-12-01T10:38:57.078Z,5.30
2022-12-01T10:41:26.353Z,5.30
2022-12-01T10:44:01.191Z,5.30
2022-12-01T10:46:32.857Z,5.30
2022-12-01T10:49:07.237Z,5.40
2022-12-01T10:51:46.969Z,5.30
2022-12-01T10:54:14.925Z,5.30
2022-12-01T10:56:45.761Z,5.30
2022-12-01T10:59:23.653Z,5.30
2022-12-01T11:01:51.685Z,5.30
2022-12-01T11:04:31.939Z,5.30
2022-12-01T11:06:59.882Z,5.30
2022-12-01T11:09:29.526Z,5.30
2022-12-01T11:11:58.750Z,5.30
2022-12-01T11:14:42.135Z,5.30
2022-12-01T11:17:17.692Z,5.30
2022-12-01T11:19:45.715Z,5.40
2022-12-01T11:22:24.485Z,5.30
2022-12-01T11:24:55.434Z,5.40
2022-12-01T11:27:24.965Z,5.40
2022-12-01T11:29:54.945Z,5.40
2022-12-01T11:32:22.899Z,5.50
2022-12-01T11:34:56.428Z,5.40
2022-12-01T11:37:26.305Z,5.50
2022-12-01T11:39:54.403Z,5.50
2022-12-01T11:42:27.174Z,5.50
2022-12-01T11:45:05.293Z,5.50
2022-12-01T11:47:33.219Z,5.50
2022-12-01T11:50:02.625Z,5.50
2022-12-01T11:52:32.252Z,5.50
2022-12-01T11:55:09.663Z,5.50
2022-12-01T11:57:40.207Z,5.50
2022-12-01T12:00:17.217Z,5.50
2022-12-01T12:02:51.427Z,5.50
2022-12-01T12:05:37.933Z,5.50
2022-12-01T12:08:24.511Z,5.50
2022-12-01T12:11:18.763Z,5.50
2022-12-01T12:13:58.746Z,5.40
2022-12-01T12:16:33.657Z,5.50
2022-12-01T12:19:16.896Z,5.40
2022-12-01T12:22:10.641Z,5.40
2022-12-01T12:24:57.451Z,5.40
2022-12-01T12:27:31.895Z,5.40
2022-12-01T12:30:05.572Z,5.30
2022-12-01T12:32:45.756Z,5.30
2022-12-01T12:35:35.236Z,5.30
2022-12-01T12:38:09.132Z,5.30
2022-12-01T12:40:41.466Z,5.30
2022-12-01T12:43:18.597Z,5.30
2022-12-01T12:45:52.650Z,5.30
2022-12-01T12:48:27.107Z,5.20
2022-12-01T12:51:08.669Z,5.30
2022-12-01T12:53:41.109Z,5.20
2022-12-01T12:56:12.596Z,5.20
2022-12-01T12:58:52.962Z,5.20
2022-12-01T13:01:29.547Z,5.20
2022-12-01T13:04:16.868Z,5.20
2022-12-01T13:06:47.630Z,5.20
2022-12-01T13:09:18.490Z,5.20
2022-12-01T13:12:01.712Z,5.30
2022-12-01T13:14:36.469Z,5.30
2022-12-01T13:17:30.636Z,5.30
2022-12-01T13:19:58.886Z,5.20
2022-12-01T13:22:31.204Z,5.20
2022-12-01T13:24:59.623Z,5.20
2022-12-01T13:27:28.653Z,5.20
2022-12-01T13:29:56.751Z,5.10
2022-12-01T13:32:41.184Z,5.10
2022-12-01T13:35:21.155Z,5.10
2022-12-01T13:37:49.343Z,5.00
2022-12-01T13:40:20.520Z,5.00
2022-12-01T13:43:04.194Z,5.00
2022-12-01T13:45:37.704Z,5.00
2022-12-01T13:48:06.442Z,4.90
2022-12-01T13:50:44.178Z,4.90
2022-12-01T13:53:32.778Z,4.90
2022-12-01T13:56:08.781Z,4.90
2022-12-01T13:58:37.513Z,4.90
2022-12-01T14:01:21.290Z,4.80
2022-12-01T14:03:53.520Z,4.70
2022-12-01T14:06:31.257Z,4.80
2022-12-01T14:09:00.746Z,4.70
2022-12-01T14:11:30.171Z,4.70
2022-12-01T14:13:58.137Z,4.70
2022-12-01T14:16:26.578Z,4.70
2022-12-01T14:18:56.042Z,4.70
2022-12-01T14:21:45.175Z,4.60
2022-12-01T14:24:23.957Z,4.60
2022-12-01T14:26:52.884Z,4.60
2022-12-01T14:29:34.901Z,4.60
2022-12-01T14:32:08.661Z,4.50
2022-12-01T14:34:37.789Z,4.50
2022-12-01T14:37:08.237Z,4.50
2022-12-01T14:39:37.785Z,4.50
2022-12-01T14:42:11.774Z,4.40
2022-12-01T14:44:51.889Z,4.40
2022-12-01T14:47:21.986Z,4.40
2022-12-01T14:49:52.939Z,4.40
2022-12-01T14:52:26.849Z,4.30
2022-12-01T14:54:56.569Z,4.40
2022-12-01T14:57:43.409Z,4.30
2022-12-01T15:00:16.306Z,4.30
2022-12-01T15:02:49.440Z,4.30
2022-12-01T15:05:18.561Z,4.30
2022-12-01T15:07:47.895Z,4.20
2022-12-01T15:10:36.320Z,4.20
2022-12-01T15:13:19.518Z,4.30
2022-12-01T15:15:52.434Z,4.20
2022-12-01T15:18:24.955Z,4.20
2022-12-01T15:21:02.017Z,4.20
2022-12-01T15:23:30.119Z,4.20
2022-12-01T15:25:58.335Z,4.20
2022-12-01T15:28:34.976Z,4.20
2022-12-01T15:31:08.011Z,4.10
2022-12-01T15:33:39.371Z,4.10
2022-12-01T15:36:07.903Z,4.10
2022-12-01T15:38:37.184Z,4.10
2022-12-01T15:44:03.853Z,4.10
2022-12-01T15:46:32.927Z,4.10
2022-12-01T15:49:17.521Z,4.10
2022-12-01T15:51:46.080Z,4.10
2022-12-01T15:54:34.216Z,4.10
2022-12-01T15:57:03.834Z,4.10
2022-12-01T15:59:40.289Z,4.10
2022-12-01T16:02:20.279Z,4.10
2022-12-01T16:04:49.177Z,4.10
2022-12-01T16:07:17.536Z,4.00
2022-12-01T16:09:58.850Z,4.00
2022-12-01T16:12:37.467Z,4.00
2022-12-01T16:15:07.315Z,4.10
2022-12-01T16:17:43.578Z,4.10
2022-12-01T16:20:30.442Z,4.00
2022-12-01T16:23:03.327Z,4.00
2022-12-01T16:25:38.080Z,4.00
2022-12-01T16:28:07.227Z,4.00
2022-12-01T16:30:37.061Z,4.00
2022-12-01T16:33:17.373Z,4.00
2022-12-01T16:35:45.318Z,4.00
2022-12-01T16:38:16.544Z,4.00
2022-12-01T16:40:44.751Z,4.00
2022-12-01T16:43:16.712Z,3.90
2022-12-01T16:45:45.798Z,3.90
2022-12-01T16:48:13.926Z,3.90
2022-12-01T16:50:41.963Z,3.90
2022-12-01T16:53:10.862Z,3.90
2022-12-01T16:55:42.737Z,3.90
2022-12-01T16:58:11.417Z,3.90
2022-12-01T17:00:39.476Z,3.90
2022-12-01T17:03:07.962Z,3.90
2022-12-01T17:05:35.974Z,3.90
2022-12-01T17:08:04.131Z,3.90
2022-12-01T17:10:32.464Z,3.80
2022-12-01T17:13:00.412Z,3.80
2022-12-01T17:15:28.335Z,3.90
2022-12-01T17:17:56.214Z,3.80
2022-12-01T17:20:24.494Z,3.90
2022-12-01T17:22:52.762Z,3.80
2022-12-01T17:25:20.690Z,3.80
2022-12-01T17:27:48.650Z,3.80
2022-12-01T17:30:16.687Z,3.80
2022-12-01T17:32:44.552Z,3.80
2022-12-01T17:35:12.646Z,3.80
2022-12-01T17:37:40.600Z,3.80
2022-12-01T17:40:10.759Z,3.80
2022-12-01T17:42:39.775Z,3.80
2022-12-01T17:45:08.148Z,3.80
2022-12-01T17:47:36.203Z,3.80
2022-12-01T17:50:04.210Z,3.80
2022-12-01T17:52:32.105Z,3.80
2022-12-01T17:55:00.232Z,3.80
2022-12-01T17:57:28.242Z,3.70
2022-12-01T17:59:56.219Z,3.70
2022-12-01T18:02:24.231Z,3.70
2022-12-01T18:04:52.570Z,3.70
2022-12-01T18:07:21.123Z,3.80
2022-12-01T18:09:49.155Z,3.80
2022-12-01T18:12:17.099Z,3.70
2022-12-01T18:14:45.070Z,3.70
2022-12-01T18:17:15.490Z,3.70
2022-12-01T18:19:44.785Z,3.70
2022-12-01T18:22:12.716Z,3.70
2022-12-01T18:24:40.906Z,3.70
2022-12-01T18:27:08.948Z,3.70
2022-12-01T18:29:36.933Z,3.70
2022-12-01T18:32:07.188Z,3.70
2022-12-01T18:34:35.215Z,3.70
2022-12-01T18:37:06.545Z,3.70
2022-12-01T18:39:34.789Z,3.60
2022-12-01T18:42:03.778Z,3.70
2022-12-01T18:44:32.316Z,3.70
2022-12-01T18:47:02.956Z,3.70
2022-12-01T18:49:32.021Z,3.60
2022-12-01T18:52:00.679Z,3.60
2022-12-01T18:54:28.620Z,3.60
2022-12-01T18:56:59.258Z,3.60
2022-12-01T18:59:27.497Z,3.70
2022-12-01T19:01:56.023Z,3.60
2022-12-01T19:04:24.671Z,3.60
2022-12-01T19:06:52.870Z,3.60
2022-12-01T19:09:21.096Z,3.60
2022-12-01T19:11:52.101Z,3.60
2022-12-01T19:14:23.896Z,3.60
2022-12-01T19:16:52.157Z,3.60
2022-12-01T19:19:20.497Z,3.60
2022-12-01T19:21:50.202Z,3.60
2022-12-01T19:24:18.700Z,3.60
2022-12-01T19:26:47.039Z,3.50
2022-12-01T19:29:15.364Z,3.50
2022-12-01T19:31:44.566Z,3.50
2022-12-01T19:34:12.990Z,3.50
2022-12-01T19:36:41.125Z,3.50
2022-12-01T19:39:09.396Z,3.50
2022-12-01T19:41:41.033Z,3.50
2022-12-01T19:44:10.037Z,3.50
2022-12-01T19:46:38.978Z,3.50
2022-12-01T19:49:07.392Z,3.50
2022-12-01T19:51:35.914Z,3.50
2022-12-01T19:54:04.732Z,3.50
2022-12-01T19:56:32.824Z,3.50
2022-12-01T19:59:00.999Z,3.50
2022-12-01T20:01:29.086Z,3.50
2022-12-01T20:03:58.062Z,3.50
2022-12-01T20:06:30.029Z,3.50
2022-12-01T20:08:59.056Z,3.50
2022-12-01T20:11:29.884Z,3.50
2022-12-01T20:13:58.121Z,3.40
2022-12-01T20:16:28.167Z,3.40
2022-12-01T20:18:59.329Z,3.50
2022-12-01T20:21:30.129Z,3.50
2022-12-01T20:23:59.611Z,3.50
2022-12-01T20:26:30.912Z,3.50
2022-12-01T20:29:01.119Z,3.50
2022-12-01T20:31:30.800Z,3.40
2022-12-01T20:34:00.215Z,3.40
2022-12-01T20:36:29.079Z,3.40
2022-12-01T20:38:57.468Z,3.40
2022-12-01T20:41:25.939Z,3.40
2022-12-01T20:43:54.179Z,3.40
2022-12-01T20:46:22.842Z,3.40
2022-12-01T20:48:51.133Z,3.40
2022-12-01T20:51:19.542Z,3.40
2022-12-01T20:54:12.287Z,3.40
2022-12-01T20:56:36.944Z,3.40
2022-12-01T20:59:05.941Z,3.40
2022-12-01T21:01:35.048Z,3.40
2022-12-01T21:04:03.923Z,3.40
2022-12-01T21:06:32.126Z,3.40
2022-12-01T21:09:01.570Z,3.40
2022-12-01T21:11:51.987Z,3.40
2022-12-01T21:14:38.807Z,3.40
2022-12-01T21:17:22.318Z,3.40
2022-12-01T21:19:53.339Z,3.30
2022-12-01T21:22:21.320Z,3.40
2022-12-01T21:24:51.098Z,3.30
2022-12-01T21:27:21.648Z,3.40
2022-12-01T21:29:50.186Z,3.30
2022-12-01T21:32:19.508Z,3.30
2022-12-01T21:34:48.038Z,3.40
2022-12-01T21:37:23.461Z,3.30
2022-12-01T21:39:56.710Z,3.30
2022-12-01T21:42:30.906Z,3.30
2022-12-01T21:44:59.036Z,3.30
2022-12-01T21:47:27.712Z,3.30
2022-12-01T21:49:59.853Z,3.30
2022-12-01T21:52:34.756Z,3.30
2022-12-01T21:55:09.606Z,3.30
2022-12-01T21:57:45.038Z,3.30
2022-12-01T22:00:28.476Z,3.30
2022-12-01T22:02:56.391Z,3.30
2022-12-01T22:05:31.741Z,3.30
2022-12-01T22:08:01.414Z,3.30
2022-12-01T22:10:48.097Z,3.30
2022-12-01T22:13:15.953Z,3.30
2022-12-01T22:15:44.113Z,3.30
2022-12-01T22:18:22.255Z,3.30
2022-12-01T22:20:50.162Z,3.30
2022-12-01T22:23:19.011Z,3.30
2022-12-01T22:25:48.115Z,3.30
2022-12-01T22:28:18.456Z,3.30
2022-12-01T22:30:46.645Z,3.30
2022-12-01T22:33:21.437Z,3.30
2022-12-01T22:35:53.360Z,3.30
2022-12-01T22:38:21.728Z,3.30
2022-12-01T22:40:50.850Z,3.30
2022-12-01T22:43:18.746Z,3.30
2022-12-01T22:45:49.627Z,3.30
2022-12-01T22:48:50.041Z,3.30
2022-12-01T22:51:25.878Z,3.30
2022-12-01T22:53:57.317Z,3.20
2022-12-01T22:56:31.121Z,3.20
2022-12-01T22:58:59.090Z,3.20
2022-12-01T23:01:31.262Z,3.30
2022-12-01T23:04:19.431Z,3.20
2022-12-01T23:06:56.446Z,3.20
2022-12-01T23:09:27.001Z,3.20
2022-12-01T23:12:15.313Z,3.20
2022-12-01T23:14:50.307Z,3.20
2022-12-01T23:17:23.305Z,3.20
2022-12-01T23:19:52.681Z,3.20
2022-12-01T23:22:21.183Z,3.20
2022-12-01T23:24:49.418Z,3.20
2022-12-01T23:27:18.431Z,3.20
2022-12-01T23:29:46.498Z,3.20
2022-12-01T23:32:14.529Z,3.20
2022-12-01T23:34:42.469Z,3.20
2022-12-01T23:37:20.153Z,3.20
2022-12-01T23:39:49.255Z,3.20
2022-12-01T23:42:17.120Z,3.20
2022-12-01T23:44:45.914Z,3.20
2022-12-01T23:47:19.099Z,3.20
2022-12-01T23:49:47.969Z,3.20
2022-12-01T23:52:18.875Z,3.20
2022-12-01T23:54:47.096Z,3.20
2022-12-01T23:57:22.151Z,3.20
2022-12-01T23:59:52.318Z,3.20
